sensor_id;sensor_type;location;lat;lon;timestamp;pressure;altitude;pressure_sealevel;temperature;humidity
56518;BME280;42419;48.760;2.322;2023-08-20T00:01:09;101319.34;;;24.50;53.22
56518;BME280;42419;48.760;2.322;2023-08-20T00:03:37;101280.91;;;24.28;52.75
56518;BME280;42419;48.760;2.322;2023-08-20T00:06:04;101261.03;;;24.13;52.44
56518;BME280;42419;48.760;2.322;2023-08-20T00:08:29;101254.78;;;24.13;52.67
56518;BME280;42419;48.760;2.322;2023-08-20T00:10:55;101303.59;;;24.41;52.98
56518;BME280;42419;48.760;2.322;2023-08-20T00:13:20;101317.16;;;24.40;52.48
56518;BME280;42419;48.760;2.322;2023-08-20T00:15:46;101283.84;;;24.24;52.89
56518;BME280;42419;48.760;2.322;2023-08-20T00:18:11;101306.66;;;24.34;52.31
56518;BME280;42419;48.760;2.322;2023-08-20T00:20:37;101314.69;;;24.35;52.14
56518;BME280;42419;48.760;2.322;2023-08-20T00:23:04;101315.69;;;24.33;52.27
56518;BME280;42419;48.760;2.322;2023-08-20T00:25:29;101322.97;;;24.31;51.82
56518;BME280;42419;48.760;2.322;2023-08-20T00:27:55;101323.09;;;24.28;52.09
56518;BME280;42419;48.760;2.322;2023-08-20T00:30:20;101325.88;;;24.26;51.86
56518;BME280;42419;48.760;2.322;2023-08-20T00:32:46;101325.06;;;24.24;51.37
56518;BME280;42419;48.760;2.322;2023-08-20T00:35:11;101305.81;;;24.14;51.25
56518;BME280;42419;48.760;2.322;2023-08-20T00:37:36;101328.81;;;24.22;50.73
56518;BME280;42419;48.760;2.322;2023-08-20T00:40:02;101323.41;;;24.22;50.83
56518;BME280;42419;48.760;2.322;2023-08-20T00:42:30;101324.28;;;24.22;50.36
56518;BME280;42419;48.760;2.322;2023-08-20T00:44:55;101335.19;;;24.19;50.59
56518;BME280;42419;48.760;2.322;2023-08-20T00:47:21;101336.94;;;24.20;50.31
56518;BME280;42419;48.760;2.322;2023-08-20T00:49:48;101336.16;;;24.18;50.09
56518;BME280;42419;48.760;2.322;2023-08-20T00:52:16;101338.09;;;24.14;49.96
56518;BME280;42419;48.760;2.322;2023-08-20T00:54:44;101337.25;;;24.14;50.47
56518;BME280;42419;48.760;2.322;2023-08-20T00:57:09;101337.31;;;24.12;50.42
56518;BME280;42419;48.760;2.322;2023-08-20T00:59:36;101334.78;;;24.09;50.03
56518;BME280;42419;48.760;2.322;2023-08-20T01:02:01;101334.78;;;24.09;50.31
56518;BME280;42419;48.760;2.322;2023-08-20T01:04:28;101336.66;;;24.07;50.25
56518;BME280;42419;48.760;2.322;2023-08-20T01:12:16;101337.59;;;24.06;50.07
56518;BME280;42419;48.760;2.322;2023-08-20T01:14:42;101332.28;;;24.05;50.02
56518;BME280;42419;48.760;2.322;2023-08-20T01:17:07;101323.69;;;23.97;49.90
56518;BME280;42419;48.760;2.322;2023-08-20T01:19:33;101324.50;;;23.99;49.71
56518;BME280;42419;48.760;2.322;2023-08-20T01:22:31;101335.31;;;23.97;49.59
56518;BME280;42419;48.760;2.322;2023-08-20T01:28:19;101332.78;;;23.94;49.49
56518;BME280;42419;48.760;2.322;2023-08-20T01:30:45;101343.69;;;23.91;49.88
56518;BME280;42419;48.760;2.322;2023-08-20T01:33:11;101337.66;;;23.86;49.90
56518;BME280;42419;48.760;2.322;2023-08-20T01:35:38;101352.94;;;23.84;49.84
56518;BME280;42419;48.760;2.322;2023-08-20T01:38:03;101344.13;;;23.81;50.04
56518;BME280;42419;48.760;2.322;2023-08-20T01:40:29;101348.69;;;23.79;50.02
56518;BME280;42419;48.760;2.322;2023-08-20T01:42:55;101325.06;;;23.66;49.83
56518;BME280;42419;48.760;2.322;2023-08-20T01:45:20;101337.38;;;23.72;49.80
56518;BME280;42419;48.760;2.322;2023-08-20T01:47:46;101336.53;;;23.70;50.46
56518;BME280;42419;48.760;2.322;2023-08-20T01:50:12;101342.94;;;23.67;50.17
56518;BME280;42419;48.760;2.322;2023-08-20T01:52:37;101334.34;;;23.59;50.29
56518;BME280;42419;48.760;2.322;2023-08-20T01:55:03;101333.28;;;23.63;50.68
56518;BME280;42419;48.760;2.322;2023-08-20T01:57:29;101329.03;;;23.58;50.17
56518;BME280;42419;48.760;2.322;2023-08-20T01:59:54;101343.34;;;23.58;50.48
56518;BME280;42419;48.760;2.322;2023-08-20T02:02:19;101343.41;;;23.57;50.39
56518;BME280;42419;48.760;2.322;2023-08-20T02:04:45;101351.56;;;23.55;50.08
56518;BME280;42419;48.760;2.322;2023-08-20T02:07:11;101349.00;;;23.52;50.39
56518;BME280;42419;48.760;2.322;2023-08-20T02:09:36;101346.44;;;23.49;50.68
56518;BME280;42419;48.760;2.322;2023-08-20T02:12:02;101350.06;;;23.48;50.58
56518;BME280;42419;48.760;2.322;2023-08-20T02:14:27;101337.03;;;23.39;50.62
56518;BME280;42419;48.760;2.322;2023-08-20T02:16:54;101348.53;;;23.43;50.63
56518;BME280;42419;48.760;2.322;2023-08-20T02:19:19;101344.16;;;23.40;50.80
56518;BME280;42419;48.760;2.322;2023-08-20T02:21:44;101344.16;;;23.40;50.87
56518;BME280;42419;48.760;2.322;2023-08-20T02:24:09;101336.38;;;23.34;51.37
56518;BME280;42419;48.760;2.322;2023-08-20T02:26:35;101347.94;;;23.36;51.27
56518;BME280;42419;48.760;2.322;2023-08-20T02:29:00;101352.44;;;23.36;51.14
56518;BME280;42419;48.760;2.322;2023-08-20T02:31:25;101346.38;;;23.31;51.18
56518;BME280;42419;48.760;2.322;2023-08-20T02:33:51;101330.72;;;23.20;51.40
56518;BME280;42419;48.760;2.322;2023-08-20T02:36:16;101344.81;;;23.25;51.21
56518;BME280;42419;48.760;2.322;2023-08-20T02:38:41;101340.41;;;23.24;51.54
56518;BME280;42419;48.760;2.322;2023-08-20T02:41:07;101339.66;;;23.20;51.90
56518;BME280;42419;48.760;2.322;2023-08-20T02:43:32;101336.09;;;23.20;51.82
56518;BME280;42419;48.760;2.322;2023-08-20T02:45:57;101283.75;;;22.88;51.62
56518;BME280;42419;48.760;2.322;2023-08-20T02:48:23;101335.41;;;23.15;51.93
56518;BME280;42419;48.760;2.322;2023-08-20T02:50:55;101344.25;;;23.17;51.96
56518;BME280;42419;48.760;2.322;2023-08-20T02:53:21;101342.44;;;23.17;51.97
56518;BME280;42419;48.760;2.322;2023-08-20T02:55:46;101343.47;;;23.15;52.00
56518;BME280;42419;48.760;2.322;2023-08-20T02:58:12;101339.03;;;23.14;51.64
56518;BME280;42419;48.760;2.322;2023-08-20T03:00:38;101321.44;;;23.07;51.57
56518;BME280;42419;48.760;2.322;2023-08-20T03:03:03;101334.53;;;23.14;51.92
56518;BME280;42419;48.760;2.322;2023-08-20T03:05:32;101325.97;;;23.05;51.72
56518;BME280;42419;48.760;2.322;2023-08-20T03:07:57;101334.59;;;23.13;51.64
56518;BME280;42419;48.760;2.322;2023-08-20T03:10:23;101338.16;;;23.13;51.33
56518;BME280;42419;48.760;2.322;2023-08-20T03:12:48;101337.25;;;23.13;51.51
56518;BME280;42419;48.760;2.322;2023-08-20T03:15:14;101348.09;;;23.11;51.68
56518;BME280;42419;48.760;2.322;2023-08-20T03:17:39;101353.53;;;23.10;51.73
56518;BME280;42419;48.760;2.322;2023-08-20T03:20:05;101352.78;;;23.06;51.48
56518;BME280;42419;48.760;2.322;2023-08-20T03:22:32;101351.97;;;23.04;51.58
56518;BME280;42419;48.760;2.322;2023-08-20T03:24:57;101347.59;;;23.02;51.70
56518;BME280;42419;48.760;2.322;2023-08-20T03:27:22;101335.09;;;23.01;51.47
56518;BME280;42419;48.760;2.322;2023-08-20T03:29:48;101329.00;;;22.97;51.73
56518;BME280;42419;48.760;2.322;2023-08-20T03:32:13;101330.72;;;22.98;51.86
56518;BME280;42419;48.760;2.322;2023-08-20T03:34:38;101325.44;;;22.97;51.80
56518;BME280;42419;48.760;2.322;2023-08-20T03:37:04;101328.13;;;22.97;51.45
56518;BME280;42419;48.760;2.322;2023-08-20T03:39:32;101335.34;;;22.95;51.36
56518;BME280;42419;48.760;2.322;2023-08-20T03:41:58;101345.22;;;22.94;51.88
56518;BME280;42419;48.760;2.322;2023-08-20T03:44:23;101333.88;;;22.88;51.70
56518;BME280;42419;48.760;2.322;2023-08-20T03:46:49;101348.00;;;22.93;51.69
56518;BME280;42419;48.760;2.322;2023-08-20T03:49:14;101321.63;;;22.80;52.16
56518;BME280;42419;48.760;2.322;2023-08-20T03:51:39;101339.13;;;22.91;51.92
56518;BME280;42419;48.760;2.322;2023-08-20T03:54:06;101342.81;;;22.88;52.17
56518;BME280;42419;48.760;2.322;2023-08-20T03:56:31;101341.88;;;22.89;51.97
56518;BME280;42419;48.760;2.322;2023-08-20T03:58:56;101342.00;;;22.86;52.01
56518;BME280;42419;48.760;2.322;2023-08-20T04:01:22;101338.50;;;22.84;52.04
56518;BME280;42419;48.760;2.322;2023-08-20T04:03:47;101340.41;;;22.80;51.70
56518;BME280;42419;48.760;2.322;2023-08-20T04:06:14;101346.63;;;22.82;51.81
56518;BME280;42419;48.760;2.322;2023-08-20T04:08:39;101346.66;;;22.81;52.03
56518;BME280;42419;48.760;2.322;2023-08-20T04:11:04;101346.66;;;22.81;52.03
56518;BME280;42419;48.760;2.322;2023-08-20T04:13:30;101330.88;;;22.73;52.06
56518;BME280;42419;48.760;2.322;2023-08-20T04:15:56;101348.56;;;22.79;51.79
56518;BME280;42419;48.760;2.322;2023-08-20T04:18:21;101338.13;;;22.71;52.22
56518;BME280;42419;48.760;2.322;2023-08-20T04:20:47;101363.94;;;22.75;51.76
56518;BME280;42419;48.760;2.322;2023-08-20T04:23:12;101351.72;;;22.67;52.01
56518;BME280;42419;48.760;2.322;2023-08-20T04:25:38;101364.97;;;22.71;52.03
56518;BME280;42419;48.760;2.322;2023-08-20T04:28:03;101364.16;;;22.69;52.19
56518;BME280;42419;48.760;2.322;2023-08-20T04:30:29;101370.34;;;22.71;52.37
56518;BME280;42419;48.760;2.322;2023-08-20T04:32:54;101366.81;;;22.71;52.03
56518;BME280;42419;48.760;2.322;2023-08-20T04:35:19;101355.25;;;22.69;51.97
56518;BME280;42419;48.760;2.322;2023-08-20T04:37:45;101360.56;;;22.70;52.05
56518;BME280;42419;48.760;2.322;2023-08-20T04:40:11;101359.59;;;22.71;52.44
56518;BME280;42419;48.760;2.322;2023-08-20T04:42:37;101365.03;;;22.70;52.50
56518;BME280;42419;48.760;2.322;2023-08-20T04:45:03;101363.28;;;22.69;52.38
56518;BME280;42419;48.760;2.322;2023-08-20T04:47:28;101350.19;;;22.61;52.37
56518;BME280;42419;48.760;2.322;2023-08-20T04:49:54;101370.47;;;22.68;52.15
56518;BME280;42419;48.760;2.322;2023-08-20T04:52:19;101381.19;;;22.68;52.62
56518;BME280;42419;48.760;2.322;2023-08-20T04:54:46;101378.78;;;22.62;52.60
56518;BME280;42419;48.760;2.322;2023-08-20T04:57:11;101383.94;;;22.67;52.53
56518;BME280;42419;48.760;2.322;2023-08-20T04:59:36;101384.94;;;22.64;52.47
56518;BME280;42419;48.760;2.322;2023-08-20T05:02:02;101389.38;;;22.65;52.64
56518;BME280;42419;48.760;2.322;2023-08-20T05:04:27;101373.53;;;22.59;52.32
56518;BME280;42419;48.760;2.322;2023-08-20T05:06:52;101388.47;;;22.66;52.66
56518;BME280;42419;48.760;2.322;2023-08-20T05:09:18;101371.94;;;22.54;52.92
56518;BME280;42419;48.760;2.322;2023-08-20T05:11:43;101385.88;;;22.63;52.48
56518;BME280;42419;48.760;2.322;2023-08-20T05:14:08;101373.66;;;22.56;52.79
56518;BME280;42419;48.760;2.322;2023-08-20T05:16:33;101396.69;;;22.62;53.02
56518;BME280;42419;48.760;2.322;2023-08-20T05:18:59;101396.69;;;22.62;52.99
56518;BME280;42419;48.760;2.322;2023-08-20T05:21:24;101389.56;;;22.61;53.05
56518;BME280;42419;48.760;2.322;2023-08-20T05:23:49;101393.13;;;22.61;53.11
56518;BME280;42419;48.760;2.322;2023-08-20T05:26:15;101391.31;;;22.62;53.23
56518;BME280;42419;48.760;2.322;2023-08-20T05:28:40;101397.69;;;22.59;52.86
56518;BME280;42419;48.760;2.322;2023-08-20T05:31:05;101394.19;;;22.57;52.50
56518;BME280;42419;48.760;2.322;2023-08-20T05:33:30;101393.47;;;22.52;52.87
56518;BME280;42419;48.760;2.322;2023-08-20T05:35:56;101399.63;;;22.56;53.32
56518;BME280;42419;48.760;2.322;2023-08-20T05:38:21;101395.16;;;22.55;53.34
56518;BME280;42419;48.760;2.322;2023-08-20T05:40:46;101396.94;;;22.56;53.49
56518;BME280;42419;48.760;2.322;2023-08-20T05:43:12;101398.69;;;22.57;53.54
56518;BME280;42419;48.760;2.322;2023-08-20T05:45:37;101403.13;;;22.58;53.50
56518;BME280;42419;48.760;2.322;2023-08-20T05:48:02;101405.72;;;22.59;53.75
56518;BME280;42419;48.760;2.322;2023-08-20T05:50:28;101403.97;;;22.58;53.63
56518;BME280;42419;48.760;2.322;2023-08-20T05:52:53;101395.91;;;22.58;53.45
56518;BME280;42419;48.760;2.322;2023-08-20T05:55:19;101387.34;;;22.49;53.33
56518;BME280;42419;48.760;2.322;2023-08-20T05:57:44;101381.38;;;22.40;53.39
56518;BME280;42419;48.760;2.322;2023-08-20T06:00:10;101407.63;;;22.57;53.63
56518;BME280;42419;48.760;2.322;2023-08-20T06:02:36;101410.22;;;22.59;53.49
56518;BME280;42419;48.760;2.322;2023-08-20T06:05:02;101408.53;;;22.56;53.73
56518;BME280;42419;48.760;2.322;2023-08-20T06:07:29;101421.72;;;22.62;53.85
56518;BME280;42419;48.760;2.322;2023-08-20T06:09:55;101416.28;;;22.64;53.71
56518;BME280;42419;48.760;2.322;2023-08-20T06:12:21;101427.91;;;22.64;53.48
56518;BME280;42419;48.760;2.322;2023-08-20T06:14:47;101421.59;;;22.65;53.66
56518;BME280;42419;48.760;2.322;2023-08-20T06:17:12;101434.94;;;22.67;53.69
56518;BME280;42419;48.760;2.322;2023-08-20T06:19:38;101428.81;;;22.63;53.53
56518;BME280;42419;48.760;2.322;2023-08-20T06:22:03;101430.41;;;22.69;53.82
56518;BME280;42419;48.760;2.322;2023-08-20T06:24:29;101424.28;;;22.65;54.07
56518;BME280;42419;48.760;2.322;2023-08-20T06:26:54;101423.97;;;22.73;54.00
56518;BME280;42419;48.760;2.322;2023-08-20T06:29:19;101430.97;;;22.77;53.96
56518;BME280;42419;48.760;2.322;2023-08-20T06:31:47;101425.53;;;22.78;53.67
56518;BME280;42419;48.760;2.322;2023-08-20T06:34:12;101423.66;;;22.80;54.11
56518;BME280;42419;48.760;2.322;2023-08-20T06:36:38;101420.78;;;22.85;53.46
56518;BME280;42419;48.760;2.322;2023-08-20T06:39:03;101426.09;;;22.87;54.03
56518;BME280;42419;48.760;2.322;2023-08-20T06:41:29;101434.03;;;22.90;53.56
56518;BME280;42419;48.760;2.322;2023-08-20T06:43:54;101425.91;;;22.91;53.49
56518;BME280;42419;48.760;2.322;2023-08-20T06:46:19;101435.56;;;22.97;53.53
56518;BME280;42419;48.760;2.322;2023-08-20T06:48:44;101434.50;;;23.01;53.83
56518;BME280;42419;48.760;2.322;2023-08-20T06:51:14;101431.66;;;23.04;53.81
56518;BME280;42419;48.760;2.322;2023-08-20T06:53:40;101432.41;;;23.07;53.94
56518;BME280;42419;48.760;2.322;2023-08-20T06:56:07;101421.84;;;23.03;53.52
56518;BME280;42419;48.760;2.322;2023-08-20T06:58:33;101433.09;;;23.12;53.58
56518;BME280;42419;48.760;2.322;2023-08-20T07:00:58;101414.56;;;23.06;53.83
56518;BME280;42419;48.760;2.322;2023-08-20T07:06:04;101443.44;;;23.23;54.16
56518;BME280;42419;48.760;2.322;2023-08-20T07:08:29;101438.88;;;23.25;53.91
56518;BME280;42419;48.760;2.322;2023-08-20T07:10:55;101429.13;;;23.22;54.02
56518;BME280;42419;48.760;2.322;2023-08-20T07:13:20;101431.78;;;23.24;54.14
56518;BME280;42419;48.760;2.322;2023-08-20T07:15:45;101442.94;;;23.35;54.37
56518;BME280;42419;48.760;2.322;2023-08-20T07:18:11;101441.84;;;23.39;54.25
56518;BME280;42419;48.760;2.322;2023-08-20T07:20:39;101438.38;;;23.37;54.42
56518;BME280;42419;48.760;2.322;2023-08-20T07:23:04;101432.91;;;23.39;54.51
56518;BME280;42419;48.760;2.322;2023-08-20T07:25:29;101440.72;;;23.45;54.61
56518;BME280;42419;48.760;2.322;2023-08-20T07:27:55;101454.72;;;23.53;54.41
56518;BME280;42419;48.760;2.322;2023-08-20T07:30:27;101442.97;;;23.55;54.38
56518;BME280;42419;48.760;2.322;2023-08-20T07:32:52;101436.44;;;23.61;54.51
56518;BME280;42419;48.760;2.322;2023-08-20T07:35:17;101433.63;;;23.64;54.75
56518;BME280;42419;48.760;2.322;2023-08-20T07:37:43;101436.13;;;23.68;54.76
56518;BME280;42419;48.760;2.322;2023-08-20T07:40:09;101438.53;;;23.74;54.83
56518;BME280;42419;48.760;2.322;2023-08-20T07:42:35;101444.50;;;23.81;54.59
56518;BME280;42419;48.760;2.322;2023-08-20T07:45:01;101442.53;;;23.86;54.83
56518;BME280;42419;48.760;2.322;2023-08-20T07:47:27;101435.06;;;23.93;55.11
56518;BME280;42419;48.760;2.322;2023-08-20T07:49:54;101438.41;;;23.98;55.10
56518;BME280;42419;48.760;2.322;2023-08-20T07:52:19;101440.91;;;24.02;55.09
56518;BME280;42419;48.760;2.322;2023-08-20T07:54:45;101442.44;;;24.08;55.04
56518;BME280;42419;48.760;2.322;2023-08-20T07:57:10;101437.75;;;24.13;55.38
56518;BME280;42419;48.760;2.322;2023-08-20T07:59:37;101440.28;;;24.16;55.46
56518;BME280;42419;48.760;2.322;2023-08-20T08:02:02;101432.94;;;24.20;55.44
56518;BME280;42419;48.760;2.322;2023-08-20T08:04:28;101440.69;;;24.27;55.18
56518;BME280;42419;48.760;2.322;2023-08-20T08:06:53;101449.16;;;24.37;55.43
56518;BME280;42419;48.760;2.322;2023-08-20T08:09:20;101445.28;;;24.44;55.97
56518;BME280;42419;48.760;2.322;2023-08-20T08:11:47;101441.31;;;24.52;55.91
56518;BME280;42419;48.760;2.322;2023-08-20T08:14:12;101452.59;;;24.60;55.91
56518;BME280;42419;48.760;2.322;2023-08-20T08:16:38;101441.16;;;24.55;55.63
56518;BME280;42419;48.760;2.322;2023-08-20T08:19:03;101446.91;;;24.67;55.84
56518;BME280;42419;48.760;2.322;2023-08-20T08:21:29;101452.97;;;24.72;55.38
56518;BME280;42419;48.760;2.322;2023-08-20T08:23:54;101438.91;;;24.65;55.58
56518;BME280;42419;48.760;2.322;2023-08-20T08:26:20;101452.66;;;24.78;55.72
56518;BME280;42419;48.760;2.322;2023-08-20T08:28:45;101465.13;;;24.80;55.68
56518;BME280;42419;48.760;2.322;2023-08-20T08:31:11;101456.28;;;24.77;55.33
56518;BME280;42419;48.760;2.322;2023-08-20T08:33:36;101465.78;;;24.85;55.63
56518;BME280;42419;48.760;2.322;2023-08-20T08:36:01;101453.31;;;24.83;55.54
56518;BME280;42419;48.760;2.322;2023-08-20T08:38:26;101470.72;;;24.94;55.39
56518;BME280;42419;48.760;2.322;2023-08-20T08:40:52;101464.44;;;24.94;55.24
56518;BME280;42419;48.760;2.322;2023-08-20T08:43:20;101480.00;;;25.06;54.82
56518;BME280;42419;48.760;2.322;2023-08-20T08:45:47;101446.59;;;24.91;55.32
56518;BME280;42419;48.760;2.322;2023-08-20T08:48:15;101482.22;;;25.17;54.78
56518;BME280;42419;48.760;2.322;2023-08-20T08:50:40;101460.91;;;25.12;54.85
56518;BME280;42419;48.760;2.322;2023-08-20T08:53:06;101472.81;;;25.25;55.03
56518;BME280;42419;48.760;2.322;2023-08-20T08:55:33;101469.78;;;25.31;54.71
56518;BME280;42419;48.760;2.322;2023-08-20T08:57:58;101459.00;;;25.31;54.61
56518;BME280;42419;48.760;2.322;2023-08-20T09:00:24;101452.75;;;25.31;54.24
56518;BME280;42419;48.760;2.322;2023-08-20T09:02:49;101451.56;;;25.36;54.06
56518;BME280;42419;48.760;2.322;2023-08-20T09:05:14;101456.31;;;25.48;53.87
56518;BME280;42419;48.760;2.322;2023-08-20T09:07:44;101453.41;;;25.53;54.31
56518;BME280;42419;48.760;2.322;2023-08-20T09:10:12;101433.97;;;25.46;53.83
56518;BME280;42419;48.760;2.322;2023-08-20T09:12:37;101448.50;;;25.61;53.87
56518;BME280;42419;48.760;2.322;2023-08-20T09:15:03;101428.59;;;25.64;53.58
56518;BME280;42419;48.760;2.322;2023-08-20T09:17:28;101435.50;;;25.69;53.37
56518;BME280;42419;48.760;2.322;2023-08-20T09:19:55;101434.41;;;25.73;53.06
56518;BME280;42419;48.760;2.322;2023-08-20T09:22:24;101437.81;;;25.77;52.98
56518;BME280;42419;48.760;2.322;2023-08-20T09:24:56;101440.34;;;25.80;52.61
56518;BME280;42419;48.760;2.322;2023-08-20T09:27:22;101433.81;;;25.84;52.64
56518;BME280;42419;48.760;2.322;2023-08-20T09:29:54;101436.44;;;25.85;51.94
56518;BME280;42419;48.760;2.322;2023-08-20T09:32:22;101429.41;;;25.83;52.21
56518;BME280;42419;48.760;2.322;2023-08-20T09:34:52;101432.00;;;25.84;52.23
56518;BME280;42419;48.760;2.322;2023-08-20T09:37:19;101428.13;;;25.90;52.51
56518;BME280;42419;48.760;2.322;2023-08-20T09:39:45;101435.09;;;25.94;52.33
56518;BME280;42419;48.760;2.322;2023-08-20T09:42:11;101447.16;;;26.04;52.46
56518;BME280;42419;48.760;2.322;2023-08-20T09:44:39;101445.47;;;26.02;52.86
56518;BME280;42419;48.760;2.322;2023-08-20T09:47:15;101444.94;;;25.95;52.72
56518;BME280;42419;48.760;2.322;2023-08-20T09:49:45;101438.72;;;25.93;53.05
56518;BME280;42419;48.760;2.322;2023-08-20T09:52:15;101438.50;;;25.98;53.37
56518;BME280;42419;48.760;2.322;2023-08-20T09:57:21;101392.91;;;25.76;54.22
56518;BME280;42419;48.760;2.322;2023-08-20T09:59:49;101439.53;;;25.95;55.25
56518;BME280;42419;48.760;2.322;2023-08-20T10:02:16;101442.06;;;25.98;55.58
56518;BME280;42419;48.760;2.322;2023-08-20T10:04:43;101433.19;;;25.96;55.32
56518;BME280;42419;48.760;2.322;2023-08-20T10:07:10;101439.06;;;26.04;55.07
56518;BME280;42419;48.760;2.322;2023-08-20T10:09:38;101440.81;;;26.05;54.94
56518;BME280;42419;48.760;2.322;2023-08-20T10:12:04;101449.66;;;26.07;55.29
56518;BME280;42419;48.760;2.322;2023-08-20T10:14:30;101441.34;;;26.12;55.51
56518;BME280;42419;48.760;2.322;2023-08-20T10:16:56;101411.19;;;26.04;55.45
56518;BME280;42419;48.760;2.322;2023-08-20T10:19:22;101441.00;;;26.18;55.92
56518;BME280;42419;48.760;2.322;2023-08-20T10:21:56;101444.34;;;26.23;55.54
56518;BME280;42419;48.760;2.322;2023-08-20T10:24:23;101433.53;;;26.23;55.14
56518;BME280;42419;48.760;2.322;2023-08-20T10:27:07;101433.44;;;26.24;54.97
56518;BME280;42419;48.760;2.322;2023-08-20T10:29:38;101430.59;;;26.27;54.72
56518;BME280;42419;48.760;2.322;2023-08-20T10:32:11;101421.88;;;26.22;54.29
56518;BME280;42419;48.760;2.322;2023-08-20T10:34:39;101435.59;;;26.35;54.38
56518;BME280;42419;48.760;2.322;2023-08-20T10:37:14;101440.91;;;26.37;54.23
56518;BME280;42419;48.760;2.322;2023-08-20T10:39:41;101433.78;;;26.35;53.88
56518;BME280;42419;48.760;2.322;2023-08-20T10:44:57;101431.84;;;26.38;53.68
56518;BME280;42419;48.760;2.322;2023-08-20T10:47:24;101424.78;;;26.35;53.41
56518;BME280;42419;48.760;2.322;2023-08-20T10:49:53;101425.22;;;26.43;53.40
56518;BME280;42419;48.760;2.322;2023-08-20T10:52:22;101429.63;;;26.46;53.16
56518;BME280;42419;48.760;2.322;2023-08-20T10:54:50;101433.09;;;26.48;52.93
56518;BME280;42419;48.760;2.322;2023-08-20T10:57:16;101423.22;;;26.47;53.14
56518;BME280;42419;48.760;2.322;2023-08-20T10:59:41;101418.09;;;26.42;53.26
56518;BME280;42419;48.760;2.322;2023-08-20T11:02:11;101424.97;;;26.48;53.33
56518;BME280;42419;48.760;2.322;2023-08-20T11:04:39;101427.34;;;26.54;53.57
56518;BME280;42419;48.760;2.322;2023-08-20T11:07:05;101414.97;;;26.50;53.42
56518;BME280;42419;48.760;2.322;2023-08-20T11:09:31;101421.75;;;26.57;53.36
56518;BME280;42419;48.760;2.322;2023-08-20T11:11:57;101417.94;;;26.61;53.24
56518;BME280;42419;48.760;2.322;2023-08-20T11:14:23;101415.34;;;26.59;53.19
56518;BME280;42419;48.760;2.322;2023-08-20T11:16:49;101423.34;;;26.61;52.42
56518;BME280;42419;48.760;2.322;2023-08-20T11:19:21;101423.94;;;26.66;52.38
56518;BME280;42419;48.760;2.322;2023-08-20T11:21:46;101413.59;;;26.58;52.01
56518;BME280;42419;48.760;2.322;2023-08-20T11:24:12;101417.66;;;26.65;51.79
56518;BME280;42419;48.760;2.322;2023-08-20T11:26:41;101417.78;;;26.64;51.47
56518;BME280;42419;48.760;2.322;2023-08-20T11:29:13;101414.97;;;26.65;50.97
56518;BME280;42419;48.760;2.322;2023-08-20T11:31:39;101402.78;;;26.58;51.20
56518;BME280;42419;48.760;2.322;2023-08-20T11:34:05;101416.66;;;26.68;51.05
56518;BME280;42419;48.760;2.322;2023-08-20T11:36:31;101423.06;;;26.65;51.39
56518;BME280;42419;48.760;2.322;2023-08-20T11:38:57;101418.81;;;26.61;50.88
56518;BME280;42419;48.760;2.322;2023-08-20T11:41:23;101418.47;;;26.67;50.32
56518;BME280;42419;48.760;2.322;2023-08-20T11:43:51;101416.38;;;26.72;50.64
56518;BME280;42419;48.760;2.322;2023-08-20T11:46:19;101411.16;;;26.85;50.30
56518;BME280;42419;48.760;2.322;2023-08-20T11:49:10;101404.44;;;26.92;50.33
56518;BME280;42419;48.760;2.322;2023-08-20T11:51:39;101398.88;;;26.95;50.16
56518;BME280;42419;48.760;2.322;2023-08-20T11:54:07;101407.31;;;27.05;50.00
56518;BME280;42419;48.760;2.322;2023-08-20T11:56:33;101401.13;;;27.03;49.90
56518;BME280;42419;48.760;2.322;2023-08-20T11:59:00;101410.47;;;27.13;49.86
56518;BME280;42419;48.760;2.322;2023-08-20T12:01:25;101404.84;;;27.16;50.02
56518;BME280;42419;48.760;2.322;2023-08-20T12:03:51;101402.84;;;27.19;49.60
56518;BME280;42419;48.760;2.322;2023-08-20T12:06:20;101396.81;;;27.14;49.67
56518;BME280;42419;48.760;2.322;2023-08-20T12:08:47;101392.28;;;27.15;49.86
56518;BME280;42419;48.760;2.322;2023-08-20T12:11:13;101409.72;;;27.25;49.45
56518;BME280;42419;48.760;2.322;2023-08-20T12:13:39;101399.59;;;27.29;49.37
56518;BME280;42419;48.760;2.322;2023-08-20T12:16:04;101401.53;;;27.27;49.07
56518;BME280;42419;48.760;2.322;2023-08-20T12:18:29;101400.28;;;27.32;49.12
56518;BME280;42419;48.760;2.322;2023-08-20T12:20:55;101391.47;;;27.29;48.88
56518;BME280;42419;48.760;2.322;2023-08-20T12:23:21;101374.66;;;27.23;48.21
56518;BME280;42419;48.760;2.322;2023-08-20T12:25:50;101388.56;;;27.32;48.59
56518;BME280;42419;48.760;2.322;2023-08-20T12:28:16;101387.44;;;27.36;48.34
56518;BME280;42419;48.760;2.322;2023-08-20T12:30:41;101342.94;;;27.11;48.61
56518;BME280;42419;48.760;2.322;2023-08-20T12:33:07;101366.38;;;27.27;48.47
56518;BME280;42419;48.760;2.322;2023-08-20T12:35:32;101376.88;;;27.31;48.65
56518;BME280;42419;48.760;2.322;2023-08-20T12:37:57;101381.47;;;27.31;48.15
56518;BME280;42419;48.760;2.322;2023-08-20T12:40:23;101382.22;;;27.33;47.87
56518;BME280;42419;48.760;2.322;2023-08-20T12:42:51;101391.72;;;27.40;48.11
56518;BME280;42419;48.760;2.322;2023-08-20T12:45:16;101389.69;;;27.43;48.72
56518;BME280;42419;48.760;2.322;2023-08-20T12:47:42;101389.63;;;27.45;48.65
56518;BME280;42419;48.760;2.322;2023-08-20T12:50:08;101392.31;;;27.45;48.56
56518;BME280;42419;48.760;2.322;2023-08-20T12:52:33;101389.63;;;27.45;48.46
56518;BME280;42419;48.760;2.322;2023-08-20T12:54:59;101369.66;;;27.32;47.90
56518;BME280;42419;48.760;2.322;2023-08-20T12:57:24;101385.53;;;27.38;47.45
56518;BME280;42419;48.760;2.322;2023-08-20T12:59:49;101367.34;;;27.26;47.41
56518;BME280;42419;48.760;2.322;2023-08-20T13:02:15;101382.22;;;27.33;47.71